Time;durP1;ratioP1;P1;durP2;ratioP2;P2;SDS_P1;SDS_P2;PMS_P1;PMS_P2;Temp;Humidity;BMP_temperature;BMP_pressure;BME280_temperature;BME280_humidity;BME280_pressure;Samples;Min_cycle;Max_cycle;Signal;HPM_P1;HPM_P2
2021/04/20 00:01:42;;;;;;;23.50;17.13;;;9.00;91.70;;;;;;4968379;28;20058;-85
2021/04/20 00:04:09;;;;;;;23.42;17.08;;;9.00;91.80;;;;;;4973044;28;20034;-85
2021/04/20 00:06:35;;;;;;;26.85;19.08;;;9.00;91.80;;;;;;4949050;28;20051;-85
2021/04/20 00:09:06;;;;;;;22.67;16.25;;;9.00;91.80;;;;;;4985150;28;20050;-85
2021/04/20 00:11:33;;;;;;;26.25;19.63;;;9.00;91.80;;;;;;4997492;28;20073;-85
2021/04/20 00:13:59;;;;;;;25.08;18.95;;;9.00;91.90;;;;;;4994647;28;20407;-85
2021/04/20 00:16:26;;;;;;;25.65;18.85;;;9.00;91.90;;;;;;4982041;28;20416;-85
2021/04/20 00:18:52;;;;;;;20.70;15.27;;;9.00;92.00;;;;;;4958611;28;20066;-85
2021/04/20 00:21:19;;;;;;;28.92;22.48;;;9.00;91.90;;;;;;4983096;28;20035;-84
2021/04/20 00:23:45;;;;;;;32.90;25.10;;;9.00;92.00;;;;;;4982166;28;20038;-85
2021/04/20 00:26:12;;;;;;;30.42;21.40;;;9.10;92.10;;;;;;4984291;28;20057;-84
2021/04/20 00:28:38;;;;;;;31.45;23.75;;;9.10;92.10;;;;;;4997504;28;20042;-85
2021/04/20 00:31:06;;;;;;;34.75;26.52;;;9.10;92.10;;;;;;4982924;28;20062;-84
2021/04/20 00:33:36;;;;;;;30.15;22.75;;;9.10;92.20;;;;;;4980410;28;20038;-85
2021/04/20 00:36:02;;;;;;;25.63;17.70;;;9.10;92.20;;;;;;4950843;28;20865;-85
2021/04/20 00:38:29;;;;;;;25.15;18.23;;;9.10;92.10;;;;;;4956945;28;20446;-85
2021/04/20 00:41:05;;;;;;;28.02;21.48;;;9.10;92.10;;;;;;4969292;28;20058;-85
2021/04/20 00:43:37;;;;;;;33.67;23.70;;;9.10;92.30;;;;;;4988894;28;20042;-85
2021/04/20 00:46:12;;;;;;;34.17;25.17;;;9.10;92.40;;;;;;4990716;28;20053;-85
2021/04/20 00:48:39;;;;;;;28.10;20.40;;;9.00;92.40;;;;;;4976902;28;20033;-85
2021/04/20 00:51:07;;;;;;;29.63;21.92;;;9.00;92.30;;;;;;4960825;28;20057;-85
2021/04/20 00:53:34;;;;;;;31.00;23.17;;;9.00;92.40;;;;;;4956934;28;20066;-85
2021/04/20 00:56:02;;;;;;;29.10;20.35;;;9.00;92.40;;;;;;4978111;28;20038;-85
2021/04/20 00:58:29;;;;;;;28.45;20.42;;;9.00;92.40;;;;;;4996746;28;20041;-85
2021/04/20 01:00:56;;;;;;;25.92;19.00;;;8.90;92.40;;;;;;4959229;28;20069;-85
2021/04/20 01:03:23;;;;;;;24.42;17.75;;;8.90;92.50;;;;;;4973891;28;20052;-85
2021/04/20 01:05:50;;;;;;;24.80;18.55;;;8.80;92.50;;;;;;4987587;28;20046;-85
2021/04/20 01:08:19;;;;;;;23.92;16.38;;;8.80;92.50;;;;;;4989224;28;20054;-85
2021/04/20 01:10:56;;;;;;;25.25;17.83;;;8.80;92.50;;;;;;4989377;28;20583;-85
2021/04/20 01:13:25;;;;;;;25.80;18.52;;;8.80;92.60;;;;;;4993291;28;20054;-85
2021/04/20 01:15:53;;;;;;;27.92;18.90;;;8.70;92.60;;;;;;4987529;28;20405;-85
2021/04/20 01:18:22;;;;;;;27.60;20.10;;;8.70;92.60;;;;;;4987888;28;20049;-84
2021/04/20 01:20:52;;;;;;;29.77;21.60;;;8.70;92.60;;;;;;4989630;28;20576;-84
2021/04/20 01:23:26;;;;;;;25.77;18.65;;;8.70;92.60;;;;;;4988965;28;20042;-85
2021/04/20 01:25:57;;;;;;;25.60;18.60;;;8.60;92.60;;;;;;4986781;28;20057;-85
2021/04/20 01:28:23;;;;;;;25.10;17.75;;;8.60;92.70;;;;;;4988462;28;20050;-84
2021/04/20 01:30:50;;;;;;;24.63;17.30;;;8.50;92.70;;;;;;4984887;28;20070;-85
2021/04/20 01:33:17;;;;;;;28.05;20.13;;;8.50;92.70;;;;;;4971488;28;20076;-79
2021/04/20 01:35:43;;;;;;;24.52;17.30;;;8.50;92.80;;;;;;4960285;28;20042;-80
2021/04/20 01:38:10;;;;;;;27.08;19.20;;;8.40;92.80;;;;;;4974237;28;20050;-80
2021/04/20 01:40:37;;;;;;;24.88;17.52;;;8.40;92.90;;;;;;4977691;28;20092;-80
2021/04/20 01:43:04;;;;;;;26.88;18.42;;;8.30;92.80;;;;;;4991416;28;20042;-80
2021/04/20 01:45:32;;;;;;;27.23;19.05;;;8.40;92.90;;;;;;4974678;28;20038;-79
2021/04/20 01:48:00;;;;;;;24.80;17.33;;;8.30;92.90;;;;;;4977350;28;20034;-80
2021/04/20 01:50:26;;;;;;;26.75;18.65;;;8.30;92.90;;;;;;4993332;28;20058;-79
2021/04/20 01:52:53;;;;;;;30.98;20.60;;;8.20;93.00;;;;;;4955797;28;20054;-79
2021/04/20 01:55:20;;;;;;;28.25;19.27;;;8.30;93.00;;;;;;4960061;28;20042;-79
2021/04/20 01:57:50;;;;;;;29.08;19.80;;;8.20;93.00;;;;;;4994268;28;20065;-80
2021/04/20 02:00:19;;;;;;;21.70;15.43;;;8.20;93.10;;;;;;4991223;28;20053;-79
2021/04/20 02:02:46;;;;;;;24.83;17.95;;;8.10;93.10;;;;;;4972945;28;20043;-79
2021/04/20 02:05:14;;;;;;;25.50;16.73;;;8.10;93.10;;;;;;4972316;28;20049;-79
2021/04/20 02:07:42;;;;;;;24.92;17.25;;;8.10;93.10;;;;;;4975887;28;20046;-80
2021/04/20 02:10:10;;;;;;;22.88;16.77;;;8.10;93.20;;;;;;4976417;28;20049;-79
2021/04/20 02:12:38;;;;;;;25.00;18.23;;;8.00;93.20;;;;;;4977621;28;20038;-80
2021/04/20 02:15:08;;;;;;;28.55;18.55;;;8.00;93.40;;;;;;4958695;28;20038;-80
2021/04/20 02:17:34;;;;;;;26.85;18.52;;;7.90;93.20;;;;;;4974505;28;20497;-80
2021/04/20 02:20:04;;;;;;;28.58;19.88;;;7.90;93.20;;;;;;4979604;28;20493;-79
2021/04/20 02:22:36;;;;;;;26.70;18.60;;;7.90;93.20;;;;;;4993491;28;20034;-79
2021/04/20 02:25:06;;;;;;;28.70;19.35;;;7.90;93.30;;;;;;4990549;28;20035;-79
2021/04/20 02:27:35;;;;;;;30.63;22.13;;;7.90;93.30;;;;;;4959551;28;20466;-80
2021/04/20 02:30:08;;;;;;;26.50;18.15;;;7.90;93.30;;;;;;4978912;28;20042;-80
2021/04/20 02:32:41;;;;;;;27.55;18.52;;;7.90;93.30;;;;;;4997105;28;20026;-79
2021/04/20 02:35:11;;;;;;;30.85;20.88;;;7.80;93.30;;;;;;4995670;28;20053;-80
2021/04/20 02:37:39;;;;;;;29.90;19.42;;;7.80;93.30;;;;;;4978198;28;20050;-79
2021/04/20 02:40:18;;;;;;;27.90;19.35;;;7.80;93.30;;;;;;4975514;28;20050;-79
2021/04/20 02:42:45;;;;;;;29.00;20.02;;;7.80;93.40;;;;;;4978352;28;20895;-79
2021/04/20 02:45:12;;;;;;;27.73;19.27;;;7.80;93.40;;;;;;4970942;28;20050;-79
2021/04/20 02:47:38;;;;;;;28.98;20.27;;;7.80;93.40;;;;;;4989494;28;20038;-80
2021/04/20 02:50:14;;;;;;;29.75;20.38;;;7.70;93.40;;;;;;4959777;28;20056;-80
2021/04/20 02:52:41;;;;;;;27.83;18.95;;;7.70;93.40;;;;;;4990100;28;20042;-79
2021/04/20 02:55:11;;;;;;;37.55;25.15;;;7.70;93.50;;;;;;4978255;28;20053;-80
2021/04/20 02:57:38;;;;;;;35.25;23.80;;;7.70;93.50;;;;;;4974201;28;20042;-79
2021/04/20 03:00:09;;;;;;;34.70;23.85;;;7.60;93.50;;;;;;4974766;28;20037;-85
2021/04/20 03:02:38;;;;;;;33.60;21.92;;;7.60;93.50;;;;;;4987999;28;20053;-80
2021/04/20 03:05:14;;;;;;;34.67;23.10;;;7.60;93.50;;;;;;4952261;28;20053;-80
2021/04/20 03:07:43;;;;;;;29.13;19.05;;;7.60;93.60;;;;;;4974053;28;20033;-80
2021/04/20 03:10:12;;;;;;;32.97;22.00;;;7.60;93.50;;;;;;4968613;28;20054;-80
2021/04/20 03:12:41;;;;;;;26.35;18.92;;;7.50;93.50;;;;;;4955420;28;20050;-80
2021/04/20 03:15:10;;;;;;;29.48;19.90;;;7.50;93.60;;;;;;4967549;28;20049;-80
2021/04/20 03:17:39;;;;;;;33.60;23.23;;;7.50;93.60;;;;;;4971984;28;20073;-80
2021/04/20 03:20:11;;;;;;;29.85;20.95;;;7.50;93.70;;;;;;4958976;28;20678;-80
2021/04/20 03:22:40;;;;;;;34.03;22.98;;;7.40;93.70;;;;;;4975119;28;20046;-80
2021/04/20 03:25:11;;;;;;;32.28;21.60;;;7.40;94.00;;;;;;4981332;28;20063;-80
2021/04/20 03:27:43;;;;;;;28.90;19.98;;;7.40;93.70;;;;;;4974734;28;20046;-80
2021/04/20 03:30:12;;;;;;;31.88;20.77;;;7.40;93.80;;;;;;4970309;28;20042;-81
2021/04/20 03:32:45;;;;;;;27.92;18.33;;;7.40;93.70;;;;;;4974569;28;20061;-80
2021/04/20 03:35:27;;;;;;;31.33;20.20;;;7.30;93.70;;;;;;4973566;28;20591;-81
2021/04/20 03:37:57;;;;;;;30.52;19.90;;;7.30;93.80;;;;;;4989856;28;20034;-81
2021/04/20 03:40:24;;;;;;;31.20;20.13;;;7.30;93.80;;;;;;4972184;28;20037;-80
2021/04/20 03:42:55;;;;;;;29.98;20.63;;;7.20;93.80;;;;;;4968948;28;20810;-81
2021/04/20 03:45:33;;;;;;;26.42;18.27;;;7.20;93.90;;;;;;4975579;28;20054;-80
2021/04/20 03:48:13;;;;;;;29.37;20.23;;;7.20;93.90;;;;;;4970534;28;20042;-80
2021/04/20 03:50:44;;;;;;;26.88;17.35;;;7.10;93.90;;;;;;4975223;28;20037;-80
2021/04/20 03:53:16;;;;;;;30.02;20.33;;;7.10;93.90;;;;;;4989328;28;20057;-80
2021/04/20 03:55:48;;;;;;;31.88;20.35;;;7.10;93.90;;;;;;4957140;28;20111;-80
2021/04/20 03:58:18;;;;;;;26.83;17.15;;;7.10;94.00;;;;;;4975377;28;20033;-80
2021/04/20 04:00:50;;;;;;;31.83;20.50;;;7.00;93.90;;;;;;4957552;28;20061;-80
2021/04/20 04:03:21;;;;;;;28.90;20.30;;;7.00;93.90;;;;;;4969440;28;20505;-80
2021/04/20 04:05:49;;;;;;;29.30;18.03;;;7.00;94.00;;;;;;4975243;28;20274;-80
2021/04/20 04:08:17;;;;;;;27.80;18.60;;;7.00;94.00;;;;;;4970579;28;20045;-80
2021/04/20 04:10:47;;;;;;;30.00;20.10;;;6.90;94.00;;;;;;4956185;28;20059;-80
2021/04/20 04:13:16;;;;;;;31.75;20.10;;;6.90;94.00;;;;;;4971611;28;20058;-80
2021/04/20 04:15:44;;;;;;;27.27;18.15;;;6.80;94.00;;;;;;4987627;28;20516;-80
2021/04/20 04:18:14;;;;;;;27.90;18.75;;;6.80;94.10;;;;;;4991145;28;20055;-80
2021/04/20 04:20:41;;;;;;;30.77;20.97;;;6.70;94.10;;;;;;4987971;28;20424;-80
2021/04/20 04:23:23;;;;;;;35.10;23.50;;;6.70;94.10;;;;;;4976043;28;20381;-80
2021/04/20 04:26:10;;;;;;;46.03;31.42;;;6.70;94.20;;;;;;4973225;28;20041;-80
2021/04/20 04:28:40;;;;;;;45.53;30.13;;;6.70;94.50;;;;;;4979477;28;20037;-80
2021/04/20 04:31:09;;;;;;;42.10;28.73;;;6.70;94.60;;;;;;4979914;28;20397;-80
2021/04/20 04:33:40;;;;;;;38.17;25.37;;;6.70;94.60;;;;;;4993430;28;20049;-79
2021/04/20 04:36:09;;;;;;;38.30;24.83;;;6.60;94.50;;;;;;4992589;28;20050;-80
2021/04/20 04:38:38;;;;;;;33.63;22.93;;;6.70;94.50;;;;;;4965333;28;20042;-79
2021/04/20 04:41:07;;;;;;;32.47;22.60;;;6.70;94.50;;;;;;4978207;28;20050;-79
2021/04/20 04:43:35;;;;;;;34.17;22.87;;;6.60;94.50;;;;;;4974710;28;20046;-78
2021/04/20 04:46:02;;;;;;;29.57;20.13;;;6.60;94.50;;;;;;4996022;28;20053;-79
2021/04/20 04:48:29;;;;;;;30.40;21.15;;;6.60;94.50;;;;;;4995699;28;20100;-79
2021/04/20 04:50:59;;;;;;;28.60;18.20;;;6.60;94.50;;;;;;4980402;28;20035;-79
2021/04/20 04:53:26;;;;;;;30.43;21.60;;;6.60;94.50;;;;;;4995783;28;20488;-80
2021/04/20 04:55:58;;;;;;;33.40;23.27;;;6.50;94.50;;;;;;4962933;28;20039;-78
2021/04/20 04:58:26;;;;;;;31.98;20.08;;;6.50;94.60;;;;;;4995718;28;20046;-79
2021/04/20 05:00:58;;;;;;;51.70;33.40;;;6.50;94.60;;;;;;4976159;28;20026;-78
2021/04/20 05:03:25;;;;;;;34.75;22.60;;;6.50;94.60;;;;;;4974534;28;20034;-78
2021/04/20 05:05:57;;;;;;;30.63;20.17;;;6.50;94.60;;;;;;4988527;28;20050;-78
2021/04/20 05:08:24;;;;;;;31.50;20.13;;;6.60;94.60;;;;;;4997371;28;20057;-79
2021/04/20 05:10:51;;;;;;;40.30;27.13;;;6.70;94.60;;;;;;4978544;28;20038;-80
2021/04/20 05:13:18;;;;;;;34.40;22.53;;;6.70;94.60;;;;;;4996661;28;20556;-80
2021/04/20 05:15:45;;;;;;;37.63;25.63;;;6.80;94.60;;;;;;4984351;28;20053;-80
2021/04/20 05:18:13;;;;;;;33.50;22.17;;;6.90;94.50;;;;;;4980445;28;20029;-80
2021/04/20 05:20:45;;;;;;;29.37;19.80;;;6.90;94.50;;;;;;4985833;28;20045;-80
2021/04/20 05:23:16;;;;;;;35.58;23.02;;;7.00;94.40;;;;;;4982468;28;20488;-82
2021/04/20 05:25:44;;;;;;;40.53;27.02;;;7.10;94.30;;;;;;5002466;28;20405;-80
2021/04/20 05:28:10;;;;;;;34.60;22.67;;;7.20;94.30;;;;;;4998965;28;20046;-80
2021/04/20 05:30:37;;;;;;;32.55;23.02;;;7.30;94.30;;;;;;4980009;28;20037;-77
2021/04/20 05:33:04;;;;;;;35.13;22.60;;;7.30;94.30;;;;;;4977537;28;20038;-78
2021/04/20 05:35:31;;;;;;;36.20;23.23;;;7.50;94.30;;;;;;4980049;28;20041;-78
2021/04/20 05:37:57;;;;;;;36.60;24.35;;;7.60;94.30;;;;;;4994238;28;20050;-78
2021/04/20 05:40:26;;;;;;;39.55;25.23;;;7.60;94.20;;;;;;4967867;28;20041;-78
2021/04/20 05:42:56;;;;;;;35.10;23.75;;;7.80;94.20;;;;;;4977877;28;20042;-78
2021/04/20 05:45:24;;;;;;;38.33;25.23;;;7.80;94.20;;;;;;4984890;28;20049;-78
2021/04/20 05:47:52;;;;;;;34.55;23.67;;;8.00;94.20;;;;;;4963443;28;20037;-78
2021/04/20 05:50:20;;;;;;;38.38;26.30;;;8.10;94.10;;;;;;4964567;28;20053;-78
2021/04/20 05:52:47;;;;;;;38.97;26.02;;;8.30;94.10;;;;;;4996455;28;20488;-78
2021/04/20 05:55:14;;;;;;;29.13;20.15;;;8.50;94.00;;;;;;4981730;28;20029;-78
2021/04/20 05:57:59;;;;;;;36.07;24.10;;;8.60;93.90;;;;;;4998905;28;20038;-78
2021/04/20 06:00:26;;;;;;;45.88;31.27;;;8.90;93.80;;;;;;4981539;28;20045;-78
2021/04/20 06:02:54;;;;;;;48.95;34.75;;;9.10;93.80;;;;;;4999442;28;20046;-78
2021/04/20 06:05:23;;;;;;;48.78;34.92;;;9.30;93.70;;;;;;4969679;28;20041;-78
2021/04/20 06:07:52;;;;;;;46.38;32.33;;;9.50;93.60;;;;;;4982308;28;20034;-78
2021/04/20 06:10:19;;;;;;;44.13;30.58;;;9.70;93.50;;;;;;4993291;28;20061;-78
2021/04/20 06:12:47;;;;;;;46.30;32.58;;;9.90;93.40;;;;;;4984596;28;20034;-79
2021/04/20 06:15:25;;;;;;;44.50;32.08;;;10.10;93.30;;;;;;4966561;28;20042;-78
2021/04/20 06:17:52;;;;;;;39.92;28.42;;;10.30;93.20;;;;;;4996197;28;20046;-78
2021/04/20 06:20:21;;;;;;;44.95;31.48;;;10.50;93.00;;;;;;4967429;28;20050;-78
2021/04/20 06:22:49;;;;;;;41.92;30.77;;;10.60;92.90;;;;;;4997666;28;20048;-78
2021/04/20 06:25:17;;;;;;;46.40;34.40;;;10.80;92.80;;;;;;4985146;28;20038;-78
2021/04/20 06:27:47;;;;;;;50.53;37.08;;;10.90;92.40;;;;;;4978761;28;20050;-78
2021/04/20 06:30:15;;;;;;;49.17;37.17;;;11.10;92.30;;;;;;4999784;28;20050;-78
2021/04/20 06:32:44;;;;;;;47.80;34.00;;;11.20;92.00;;;;;;4980908;28;20061;-79
2021/04/20 06:35:19;;;;;;;44.50;33.37;;;11.30;91.90;;;;;;4985790;28;20041;-78
2021/04/20 06:37:48;;;;;;;42.40;30.48;;;11.50;91.80;;;;;;4984682;28;20304;-78
2021/04/20 06:40:23;;;;;;;45.33;34.60;;;11.60;91.70;;;;;;4982386;28;20061;-78
2021/04/20 06:42:53;;;;;;;45.72;33.63;;;11.80;91.40;;;;;;4997599;28;20034;-78
2021/04/20 06:45:44;;;;;;;43.30;31.92;;;12.00;91.20;;;;;;4979547;28;20049;-78
2021/04/20 06:48:43;;;;;;;45.70;34.53;;;12.10;91.00;;;;;;4980061;28;20404;-79
2021/04/20 06:51:14;;;;;;;46.95;35.08;;;12.30;90.70;;;;;;4969602;28;20354;-79
2021/04/20 06:53:52;;;;;;;46.25;35.30;;;12.60;90.30;;;;;;4989306;28;20186;-79
2021/04/20 06:56:40;;;;;;;45.85;34.47;;;12.90;89.70;;;;;;4955398;28;20033;-79
2021/04/20 06:59:29;;;;;;;48.45;35.38;;;13.10;88.70;;;;;;4982363;28;20029;-79
2021/04/20 07:02:05;;;;;;;45.35;33.55;;;13.20;87.70;;;;;;4953529;28;20050;-79
2021/04/20 07:04:55;;;;;;;41.25;32.60;;;13.30;87.30;;;;;;4977476;28;20795;-79
2021/04/20 07:07:48;;;;;;;47.33;37.13;;;13.40;87.20;;;;;;4974018;28;20042;-79
2021/04/20 07:10:33;;;;;;;46.25;36.97;;;13.40;86.40;;;;;;4985254;28;20053;-80
2021/04/20 07:13:02;;;;;;;46.22;36.83;;;13.50;86.10;;;;;;4968917;28;20037;-79
2021/04/20 07:15:30;;;;;;;52.00;39.63;;;13.50;85.50;;;;;;4971378;28;20387;-80
2021/04/20 07:18:13;;;;;;;45.22;36.00;;;13.60;84.70;;;;;;4953720;28;20065;-80
2021/04/20 07:21:08;;;;;;;46.55;32.78;;;13.60;84.10;;;;;;4975099;28;20049;-80
2021/04/20 07:23:53;;;;;;;42.20;34.47;;;13.70;84.30;;;;;;4987419;28;20054;-79
2021/04/20 07:26:46;;;;;;;47.80;37.10;;;13.80;84.30;;;;;;4993251;28;20405;-85
2021/04/20 07:29:51;;;;;;;43.63;34.97;;;13.90;83.60;;;;;;4971845;28;20096;-85
2021/04/20 07:32:45;;;;;;;43.78;34.13;;;14.10;83.30;;;;;;4976744;28;20110;-85
2021/04/20 07:35:17;;;;;;;47.40;37.55;;;14.20;82.50;;;;;;4986608;28;20033;-86
2021/04/20 07:37:54;;;;;;;37.33;27.85;;;14.20;81.20;;;;;;4984819;28;20049;-79
2021/04/20 07:41:02;;;;;;;35.60;28.67;;;14.30;81.70;;;;;;4992408;28;20053;-78
2021/04/20 07:43:44;;;;;;;39.15;31.42;;;14.50;81.70;;;;;;4955894;28;20069;-79
2021/04/20 07:46:38;;;;;;;32.47;26.88;;;14.60;81.20;;;;;;4993188;28;20397;-79
2021/04/20 07:49:30;;;;;;;36.10;27.98;;;14.80;80.30;;;;;;4990862;28;20547;-83
2021/04/20 07:52:14;;;;;;;30.08;24.25;;;14.90;79.90;;;;;;4986657;28;20038;-84
2021/04/20 07:54:49;;;;;;;38.28;31.30;;;15.00;79.80;;;;;;4984434;28;20046;-84
2021/04/20 07:57:36;;;;;;;33.05;26.45;;;15.10;78.50;;;;;;4988401;28;20049;-83
2021/04/20 08:00:27;;;;;;;32.05;25.75;;;15.20;78.60;;;;;;4985746;28;20049;-85
2021/04/20 08:02:54;;;;;;;31.52;26.48;;;15.30;78.20;;;;;;4985875;28;20054;-85
2021/04/20 08:05:46;;;;;;;31.42;26.98;;;15.50;77.40;;;;;;4969217;28;20031;-84
2021/04/20 08:08:26;;;;;;;31.27;25.15;;;15.60;76.90;;;;;;4972114;28;20523;-84
2021/04/20 08:11:08;;;;;;;32.97;26.95;;;15.70;76.10;;;;;;4984416;28;20548;-80
2021/04/20 08:13:44;;;;;;;;;;;15.80;75.40;;;;;;4959318;28;20045;-79
2021/04/20 08:16:36;;;;;;;31.17;25.60;;;15.90;75.00;;;;;;4990689;28;19914;-79
2021/04/20 08:19:17;;;;;;;31.42;25.50;;;16.00;74.20;;;;;;4970326;28;20034;-80
2021/04/20 08:21:49;;;;;;;30.67;24.17;;;16.10;73.90;;;;;;4998618;28;20057;-80
2021/04/20 08:24:31;;;;;;;27.77;22.57;;;16.20;73.60;;;;;;4993931;28;21219;-79
2021/04/20 08:27:07;;;;;;;30.83;25.95;;;16.40;72.90;;;;;;4960602;28;20041;-80
2021/04/20 08:29:36;;;;;;;30.17;23.63;;;16.50;71.30;;;;;;4986559;28;20042;-80
2021/04/20 08:32:11;;;;;;;25.30;21.33;;;16.60;71.10;;;;;;4970498;28;20058;-80
2021/04/20 08:34:45;;;;;;;31.52;25.80;;;16.70;71.40;;;;;;4974712;28;20045;-80
2021/04/20 08:37:22;;;;;;;26.02;23.23;;;16.80;70.70;;;;;;4974994;28;20031;-80
2021/04/20 08:40:20;;;;;;;26.25;22.50;;;16.80;69.80;;;;;;4989963;28;20046;-80
2021/04/20 08:43:15;;;;;;;25.27;21.15;;;16.90;69.90;;;;;;4969729;28;20042;-80
2021/04/20 08:45:49;;;;;;;26.80;22.23;;;17.00;70.00;;;;;;4986736;28;20046;-86
2021/04/20 08:48:51;;;;;;;23.67;18.77;;;17.10;70.10;;;;;;4969386;28;20038;-85
2021/04/20 08:51:40;;;;;;;23.48;19.30;;;17.30;69.70;;;;;;4970923;28;20507;-86
2021/04/20 08:54:34;;;;;;;23.63;20.80;;;17.40;68.40;;;;;;4985976;28;20053;-86
2021/04/20 08:57:08;;;;;;;24.80;21.63;;;17.60;68.10;;;;;;4987300;28;20061;-84
2021/04/20 08:59:55;;;;;;;26.27;23.20;;;17.70;67.50;;;;;;4986917;28;20030;-82
2021/04/20 09:03:08;;;;;;;22.83;19.48;;;17.80;66.60;;;;;;4987386;28;20049;-82
2021/04/20 09:05:58;;;;;;;25.85;22.20;;;17.90;66.70;;;;;;4945220;28;20053;-83
2021/04/20 09:08:49;;;;;;;24.40;21.55;;;18.00;65.50;;;;;;4988893;28;20478;-82
2021/04/20 09:11:27;;;;;;;24.48;21.10;;;18.10;65.30;;;;;;4987076;28;20046;-84
2021/04/20 09:14:09;;;;;;;25.67;22.60;;;18.20;64.40;;;;;;4993395;28;20030;-82
2021/04/20 09:16:51;;;;;;;26.45;21.70;;;18.40;64.30;;;;;;4993791;28;20108;-82
2021/04/20 09:19:41;;;;;;;25.40;22.70;;;18.50;64.10;;;;;;4975615;28;20049;-82
2021/04/20 09:22:35;;;;;;;20.50;18.02;;;18.60;62.50;;;;;;4975431;28;20038;-82
2021/04/20 09:25:10;;;;;;;21.60;19.30;;;18.70;62.60;;;;;;4987861;28;20050;-83
2021/04/20 09:27:51;;;;;;;23.58;19.52;;;18.80;61.30;;;;;;4990235;28;20042;-84
2021/04/20 09:30:22;;;;;;;21.35;19.05;;;18.90;61.40;;;;;;4976192;28;20037;-82
2021/04/20 09:32:56;;;;;;;17.20;14.93;;;19.00;59.60;;;;;;4994831;28;20054;-81
2021/04/20 09:35:24;;;;;;;16.38;14.68;;;19.00;59.80;;;;;;4997257;28;20050;-81
2021/04/20 09:37:53;;;;;;;17.92;16.02;;;19.20;60.20;;;;;;4993927;28;20042;-80
2021/04/20 09:40:22;;;;;;;21.00;18.00;;;19.40;59.90;;;;;;4981900;28;20496;-80
2021/04/20 09:42:54;;;;;;;19.27;16.27;;;19.50;58.20;;;;;;4979174;28;20042;-80
2021/04/20 09:45:34;;;;;;;18.38;16.35;;;19.60;57.30;;;;;;4979345;28;20038;-80
2021/04/20 09:48:08;;;;;;;24.23;20.02;;;19.70;57.30;;;;;;4997742;28;20045;-81
2021/04/20 09:51:02;;;;;;;20.48;18.27;;;19.90;56.30;;;;;;4991660;28;20038;-81
2021/04/20 09:54:01;;;;;;;19.48;17.42;;;19.90;55.50;;;;;;4988406;28;20034;-81
2021/04/20 09:56:35;;;;;;;16.98;15.18;;;19.90;56.00;;;;;;4990854;28;20408;-83
2021/04/20 09:59:25;;;;;;;18.17;16.20;;;20.00;56.20;;;;;;4990775;28;20379;-83
2021/04/20 10:01:58;;;;;;;17.58;15.70;;;20.20;55.20;;;;;;4978734;28;20508;-83
2021/04/20 10:04:39;;;;;;;18.33;16.27;;;20.20;52.30;;;;;;4986131;28;20057;-83
2021/04/20 10:07:43;;;;;;;16.15;14.25;;;20.10;52.00;;;;;;4990211;28;20045;-83
2021/04/20 10:10:41;;;;;;;15.95;14.35;;;20.20;53.30;;;;;;4979460;28;20041;-83
2021/04/20 10:14:01;;;;;;;12.70;11.15;;;20.20;52.80;;;;;;4988744;28;20053;-83
2021/04/20 10:16:54;;;;;;;13.77;12.13;;;20.40;53.30;;;;;;4956119;28;20045;-83
2021/04/20 10:19:58;;;;;;;13.23;11.60;;;20.60;52.50;;;;;;4953886;28;20042;-83
2021/04/20 10:23:04;;;;;;;13.60;11.73;;;20.80;52.00;;;;;;4992705;28;20046;-83
2021/04/20 10:25:50;;;;;;;15.07;12.10;;;21.20;51.80;;;;;;4968018;28;20045;-89
2021/04/20 10:28:50;;;;;;;9.70;8.23;;;21.30;47.70;;;;;;4992241;28;20046;-82
2021/04/20 10:31:34;;;;;;;7.90;6.65;;;21.30;47.20;;;;;;4988702;28;20050;-82
2021/04/20 10:34:02;;;;;;;12.90;11.52;;;21.40;45.60;;;;;;4992843;28;20045;-81
2021/04/20 10:36:30;;;;;;;12.77;10.02;;;21.50;46.30;;;;;;4961459;28;20033;-82
2021/04/20 10:39:02;;;;;;;12.40;11.10;;;21.80;47.80;;;;;;4989577;28;20500;-80
2021/04/20 10:41:33;;;;;;;13.27;11.90;;;22.10;46.60;;;;;;4997697;28;20054;-81
2021/04/20 10:44:01;;;;;;;10.75;9.43;;;22.40;46.20;;;;;;4999169;28;20045;-80
2021/04/20 10:46:31;;;;;;;9.50;7.95;;;22.70;46.10;;;;;;4980928;28;20044;-80
2021/04/20 10:48:59;;;;;;;8.02;6.55;;;23.10;44.10;;;;;;4996409;28;20502;-81
2021/04/20 10:51:47;;;;;;;7.53;6.82;;;23.40;43.70;;;;;;4973882;28;20042;-81
2021/04/20 10:54:15;;;;;;;9.15;7.82;;;23.80;42.30;;;;;;4969259;28;20052;-80
2021/04/20 10:56:55;;;;;;;6.85;6.15;;;24.10;41.60;;;;;;4990656;28;20394;-81
2021/04/20 10:59:31;;;;;;;5.40;4.90;;;24.20;39.40;;;;;;4982567;28;20060;-80
2021/04/20 11:02:03;;;;;;;7.95;7.03;;;24.20;36.80;;;;;;4974308;28;20039;-87
2021/04/20 11:04:33;;;;;;;7.38;5.53;;;24.10;37.90;;;;;;4990284;28;20546;-81
2021/04/20 11:07:26;;;;;;;8.85;6.63;;;24.00;36.70;;;;;;4987514;28;20053;-80
2021/04/20 11:10:02;;;;;;;8.80;7.63;;;23.90;37.50;;;;;;4995192;28;20034;-80
2021/04/20 11:12:30;;;;;;;8.75;6.65;;;23.90;37.70;;;;;;4984586;28;20141;-80
2021/04/20 11:14:59;;;;;;;9.02;7.63;;;24.20;39.10;;;;;;4978417;28;20038;-85
2021/04/20 11:17:32;;;;;;;8.43;6.22;;;24.70;38.00;;;;;;4962067;28;20056;-82
2021/04/20 11:20:17;;;;;;;8.48;5.88;;;25.20;36.80;;;;;;4987789;28;20458;-81
2021/04/20 11:22:58;;;;;;;7.95;6.78;;;25.50;36.90;;;;;;4959095;28;20414;-82
2021/04/20 11:25:31;;;;;;;6.43;5.82;;;26.00;36.90;;;;;;4991675;28;20042;-82
2021/04/20 11:28:01;;;;;;;6.18;5.68;;;26.50;35.90;;;;;;4975569;28;20493;-82
2021/04/20 11:30:36;;;;;;;7.28;6.50;;;26.80;35.50;;;;;;4994246;28;20037;-82
2021/04/20 11:33:27;;;;;;;7.07;5.80;;;27.20;34.70;;;;;;4989333;28;20042;-82
2021/04/20 11:35:58;;;;;;;6.55;5.93;;;27.40;34.50;;;;;;4986690;28;20405;-85
2021/04/20 11:38:25;;;;;;;8.25;7.28;;;27.60;33.00;;;;;;4970768;28;20026;-84
2021/04/20 11:40:58;;;;;;;11.13;5.82;;;27.70;31.70;;;;;;4959665;28;20045;-84
2021/04/20 11:43:27;;;;;;;4.78;3.55;;;27.80;31.90;;;;;;4962905;28;20520;-84
2021/04/20 11:45:57;;;;;;;5.32;4.10;;;27.70;31.20;;;;;;4974052;28;20050;-85
2021/04/20 11:48:32;;;;;;;6.15;5.22;;;27.70;31.70;;;;;;4987723;28;20065;-85
2021/04/20 11:51:04;;;;;;;7.22;5.90;;;27.90;31.20;;;;;;4984884;28;20060;-84
2021/04/20 11:53:44;;;;;;;6.32;5.03;;;27.70;31.20;;;;;;4984856;28;20049;-84
2021/04/20 11:56:11;;;;;;;6.53;4.90;;;27.80;31.40;;;;;;4974466;28;20038;-85
2021/04/20 11:58:39;;;;;;;5.88;5.18;;;28.00;30.80;;;;;;4958276;28;20470;-86
2021/04/20 12:01:21;;;;;;;10.80;5.40;;;27.90;30.30;;;;;;4971792;28;20436;-86
2021/04/20 12:03:59;;;;;;;6.78;5.72;;;27.90;30.60;;;;;;4986338;28;20881;-85
2021/04/20 12:06:43;;;;;;;9.40;8.50;;;27.80;30.90;;;;;;4984769;28;20046;-85
2021/04/20 12:09:20;;;;;;;8.13;7.43;;;27.80;30.70;;;;;;4987358;28;20041;-85
2021/04/20 12:11:47;;;;;;;7.75;6.93;;;27.80;31.70;;;;;;4986289;28;20034;-86
2021/04/20 12:14:18;;;;;;;7.18;5.75;;;27.90;30.90;;;;;;4990229;28;20065;-86
2021/04/20 12:16:46;;;;;;;6.15;5.57;;;27.80;30.30;;;;;;4955416;28;20130;-86
2021/04/20 12:19:16;;;;;;;8.05;6.68;;;27.90;31.10;;;;;;4953984;28;20034;-85
2021/04/20 12:21:48;;;;;;;8.55;7.65;;;28.30;31.30;;;;;;4954539;28;20062;-86
2021/04/20 12:24:18;;;;;;;10.02;9.02;;;28.60;31.00;;;;;;4990960;28;20034;-86
2021/04/20 12:27:04;;;;;;;10.80;9.70;;;28.70;31.00;;;;;;4989680;28;20141;-87
2021/04/20 12:29:40;;;;;;;13.77;9.48;;;28.90;31.20;;;;;;4959105;28;20500;-86
2021/04/20 12:32:17;;;;;;;9.23;8.32;;;28.80;30.90;;;;;;4976133;28;20133;-86
2021/04/20 12:34:44;;;;;;;12.70;11.43;;;29.10;31.60;;;;;;4968620;28;20039;-86
2021/04/20 12:37:12;;;;;;;10.95;9.82;;;29.30;30.00;;;;;;4971165;28;20030;-86
2021/04/20 12:39:42;;;;;;;9.73;8.82;;;29.20;30.60;;;;;;4970855;28;20038;-87
2021/04/20 12:42:13;;;;;;;9.73;8.63;;;29.40;30.60;;;;;;4968149;28;20030;-86
2021/04/20 12:44:52;;;;;;;9.60;8.60;;;29.60;30.70;;;;;;4974905;28;20489;-85
2021/04/20 12:47:34;;;;;;;9.32;8.52;;;29.60;29.50;;;;;;4966567;28;20464;-85
2021/04/20 12:50:02;;;;;;;7.95;7.18;;;29.60;29.90;;;;;;4956952;28;20049;-86
2021/04/20 12:52:31;;;;;;;10.60;9.43;;;29.90;30.20;;;;;;4977896;28;20042;-85
2021/04/20 12:55:01;;;;;;;8.90;8.10;;;30.20;29.80;;;;;;4991358;28;20038;-85
2021/04/20 12:57:43;;;;;;;12.32;10.40;;;30.50;30.10;;;;;;4989029;28;20038;-84
2021/04/20 13:00:12;;;;;;;11.38;10.27;;;30.60;29.20;;;;;;4989759;28;20046;-84
2021/04/20 13:02:44;;;;;;;9.98;9.18;;;30.60;29.50;;;;;;4992129;28;20041;-84
2021/04/20 13:05:12;;;;;;;8.85;8.05;;;30.80;29.90;;;;;;4961443;28;20489;-85
2021/04/20 13:07:40;;;;;;;9.77;8.88;;;31.20;29.40;;;;;;4957108;28;20049;-84
2021/04/20 13:10:22;;;;;;;11.40;9.80;;;31.50;29.50;;;;;;5082668;27;785349;-86
2021/04/20 13:12:58;;;;;;;10.20;9.07;;;31.90;29.20;;;;;;5083611;28;20469;-86